Aviation Digital Data Service (ADDS)

Output produced by METARs form (1728 UTC 22 September 2019)
found at http://www.aviationweather.gov/metar/data/
 
Forecast for: UIII (IRKUTSK , RU)
Text: TAF UIII 221700Z 2218/2318 VRB01MPS CAVOK
Forecast period: 1800 to 2300 UTC 22 September 2019
Forecast type: FROM: standard forecast or significant change
Winds: variable direction winds at 2 MPH (2 knots; 1.0 m/s)
Visibility: 6 or more miles 10+ km)
Ceiling: unknown
Clouds: missing
Weather: NSW  (no significant weather)
Text: BECMG 2223/2301 16006G11MPS
Forecast period: 2300 UTC 22 September 2019 to 1800 UTC 23 September 2019
Forecast type: BECOMING: Conditions expected to become as follows by 0100 UTC 23 September 2019
Winds: from the SSE (160 degrees) at 14 MPH (12 knots; 6.2 m/s)
gusting to 24 MPH (21 knots; 10.8 m/s)
Visibility: 6 or more miles 10+ km)
Ceiling: unknown
Clouds: missing
Weather: NSW  (no significant weather)